Traer, IA (50675)

6:33 AM CST on February 12, 2016 (GMT -0600)
KIATRAER2 | | Change Station
CLOSE
Current Station
Personal Weather Station
Location: Traer, IA
Elevation: 955 ft
Nearby Weather Stations
Active Advisory: Wind Chill Advisory

Elev 955 ft 42.19 °N, 92.46 °W | Updated 4 minutes ago

Overcast
Overcast
16.1 °F
Feels Like 16 °F
N
2.0
Wind Variable Wind from NNW
Gusts 6.0 mph

Today
High -- | Low -- °F
--% Chance of Precip.
Yesterday
High -- | Low -- °F
Precip. -- in
Pressure 30.30 in
Visibility 9.0 miles
Clouds Overcast 1900 ft
Windchill 16 °F
Dew Point 13 °F
Humidity 89%
Rainfall 0.00 in
Snow Depth Not available.
7:10 AM 5:38 PM
Waxing Crescent, 20% visible
METAR KMIW 121153Z AUTO 31014KT 9SM OVC019 M08/M11 A3024 RMK AO2 SLP259 T10831106 11078 21089 53012
Pressure 30.30 in
Visibility 9.0 miles
Clouds Overcast 1900 ft
Windchill 16 °F
Dew Point 13 °F
Humidity 89%
Rainfall 0.00 in
Snow Depth Not available.
7:10 AM 5:38 PM
Waxing Crescent, 20% visible
METAR KMIW 121153Z AUTO 31014KT 9SM OVC019 M08/M11 A3024 RMK AO2 SLP259 T10831106 11078 21089 53012

10-Day Weather Forecast

Almanac

Astronomy

Feb. 12, 2016 Rise Set
Actual Time
Civil Twilight
Nautical Twilight
Astronomical Twilight
Moon
Length of Visible Light
Length of Day
Tomorrow will be .
, % of the Moon is Illuminated

Today's Extremes

State Highs State Lows

Community

WunderPhotos

Upload Photos

1,892,298 photos uploaded!

WunderBlog® & News

Nearby

Air Quality

  Air Quality AQ Index Pollutant
Not available.

Snow Depth

Station Depth Elevation

Earthquake Activity

City Distance Mag. Time & Date
Minimum magnitude displayed is 2.5.

Coastal Water Temperatures

Place Temperature

Stations

Nearby Weather Stations

Station Location Temp. Windchill Dew Point Humidity Wind Precip. Elev Updated Type
                   

Watches & Warnings

Wind Chill Advisory
Issued: 3:30 AM CST Feb. 12, 2016 – National Weather Service

... Wind Chill Advisory in effect from 6 PM this evening to 8 am
CST Saturday...

The National Weather Service in Des Moines has issued a Wind
Chill Advisory... which is in effect from 6 PM this evening to
8 am CST Saturday.

* Timing... this evening into Saturday morning

* winds... northwesterly at 5 to 15 mph

* temperatures/wind chill values... wind chill values will drop
into the 20 below to 30 below range... due to the winds combined
with temperatures in the single digits and teens below zero.

* Impacts... those with interests outdoors should dress warmly and
cover exposed skin... as frostbite and hypothermia are possible
if the proper precautions are not taken.

Precautionary/preparedness actions...

A Wind Chill Advisory means that very cold air and strong winds
will combine to generate low wind chills. This will result in
frost bite and lead to hypothermia if precautions are not taken.
If you must venture outdoors... make sure you wear a hat and
gloves.



Mjb